Time;durP1;ratioP1;P1;durP2;ratioP2;P2;SDS_P1;SDS_P2;PMS_P1;PMS_P2;Temp;Humidity;BMP_temperature;BMP_pressure;BME280_temperature;BME280_humidity;BME280_pressure;Samples;Min_cycle;Max_cycle;Signal;HPM_P1;HPM_P2
2021/07/16 00:04:23;;;;;;;4.13;3.83;;;17.90;99.90;;;;;;10381304;28;20305;-79
2021/07/16 00:09:25;;;;;;;3.00;2.80;;;17.90;99.90;;;;;;10375617;28;20227;-79
2021/07/16 00:14:29;;;;;;;4.07;3.67;;;17.90;99.90;;;;;;10381847;28;20629;-82
2021/07/16 00:19:31;;;;;;;3.80;3.60;;;17.80;99.90;;;;;;10374801;28;20223;-80
2021/07/16 00:24:33;;;;;;;4.13;3.73;;;17.80;99.90;;;;;;10372537;28;20305;-80
2021/07/16 00:29:37;;;;;;;3.70;3.40;;;17.80;99.90;;;;;;10373927;28;20225;-79
2021/07/16 00:34:39;;;;;;;4.13;3.73;;;17.70;99.90;;;;;;10375091;28;20278;-80
2021/07/16 00:39:41;;;;;;;5.80;3.57;;;17.70;99.90;;;;;;10339991;28;20313;-81
2021/07/16 00:44:44;;;;;;;4.60;4.10;;;17.60;99.90;;;;;;10374334;28;20223;-80
2021/07/16 00:49:46;;;;;;;4.80;4.37;;;17.60;99.90;;;;;;10372490;28;20711;-79
2021/07/16 00:54:49;;;;;;;4.17;3.87;;;17.60;99.90;;;;;;10356576;28;20249;-80
2021/07/16 00:59:52;;;;;;;7.27;4.07;;;17.60;99.90;;;;;;10370754;28;20336;-80
2021/07/16 01:04:54;;;;;;;4.40;4.10;;;17.60;99.90;;;;;;10371596;28;20277;-80
2021/07/16 01:09:56;;;;;;;5.87;5.37;;;17.60;99.90;;;;;;10381498;28;20721;-79
2021/07/16 01:15:00;;;;;;;4.37;4.07;;;17.60;99.90;;;;;;10381552;28;20182;-80
2021/07/16 01:20:08;;;;;;;4.33;3.93;;;17.60;99.90;;;;;;10380566;28;20249;-79
2021/07/16 01:25:13;;;;;;;4.70;4.40;;;17.60;99.90;;;;;;10379794;28;20222;-80
2021/07/16 01:30:18;;;;;;;4.57;4.23;;;17.70;99.90;;;;;;10379939;28;20218;-79
2021/07/16 01:35:21;;;;;;;4.67;4.37;;;17.70;99.90;;;;;;10377172;28;20663;-81
2021/07/16 01:40:26;;;;;;;4.30;4.10;;;17.70;99.90;;;;;;10378677;28;20276;-79
2021/07/16 01:45:30;;;;;;;4.83;4.53;;;17.70;99.90;;;;;;10377737;28;20214;-79
2021/07/16 01:50:33;;;;;;;5.70;4.20;;;17.70;99.90;;;;;;10380125;28;20214;-81
2021/07/16 01:55:38;;;;;;;5.23;4.80;;;17.80;99.90;;;;;;10378202;28;20261;-80
2021/07/16 02:00:42;;;;;;;5.67;5.23;;;17.80;99.90;;;;;;10360967;28;20320;-80
2021/07/16 02:05:46;;;;;;;6.00;5.40;;;17.80;99.90;;;;;;10377164;28;20258;-79
2021/07/16 02:10:53;;;;;;;5.27;4.97;;;17.70;99.90;;;;;;10381329;28;20241;-79
2021/07/16 02:15:56;;;;;;;6.63;6.13;;;17.80;99.90;;;;;;10377376;28;20206;-78
2021/07/16 02:20:58;;;;;;;5.93;5.53;;;17.80;99.90;;;;;;10376975;28;20234;-81
2021/07/16 02:26:01;;;;;;;6.33;5.93;;;17.80;99.90;;;;;;10376293;28;20285;-79
2021/07/16 02:31:05;;;;;;;7.83;5.53;;;17.80;99.90;;;;;;10377449;28;20237;-81
2021/07/16 02:36:10;;;;;;;6.57;6.17;;;17.80;99.90;;;;;;10372662;28;20209;-79
2021/07/16 02:41:13;;;;;;;8.00;5.90;;;17.80;99.90;;;;;;10376135;28;20243;-80
2021/07/16 02:46:15;;;;;;;6.30;5.80;;;17.80;99.90;;;;;;10376405;28;20224;-80
2021/07/16 02:51:17;;;;;;;6.43;5.93;;;17.80;99.90;;;;;;10341573;28;20280;-79
2021/07/16 02:56:23;;;;;;;5.90;5.27;;;17.80;99.90;;;;;;10376040;28;20187;-79
2021/07/16 03:01:25;;;;;;;5.90;5.50;;;17.80;99.90;;;;;;10375663;28;20595;-80
2021/07/16 03:06:27;;;;;;;5.63;5.23;;;17.90;99.90;;;;;;10376773;28;20718;-81
2021/07/16 03:11:30;;;;;;;5.93;5.43;;;17.90;99.90;;;;;;10358415;28;20223;-79
2021/07/16 03:16:33;;;;;;;5.73;5.33;;;17.90;99.90;;;;;;10358472;28;20718;-79
2021/07/16 03:21:35;;;;;;;7.07;5.70;;;18.00;99.90;;;;;;10373254;28;20214;-79
2021/07/16 03:26:39;;;;;;;6.20;5.80;;;17.90;99.90;;;;;;10357251;28;20227;-80
2021/07/16 03:31:41;;;;;;;6.90;6.30;;;17.90;99.90;;;;;;10374781;28;20242;-81
2021/07/16 03:36:43;;;;;;;6.30;5.80;;;18.00;99.90;;;;;;10375177;28;20725;-80
2021/07/16 03:41:46;;;;;;;5.90;5.43;;;18.00;99.90;;;;;;10372785;28;20758;-79
2021/07/16 03:46:48;;;;;;;6.70;5.37;;;17.90;99.90;;;;;;10372036;28;20249;-79
2021/07/16 03:51:51;;;;;;;5.83;5.30;;;18.00;99.90;;;;;;10387600;28;20222;-79
2021/07/16 03:56:54;;;;;;;6.40;5.97;;;17.90;99.90;;;;;;10413238;28;20664;-79
2021/07/16 04:01:56;;;;;;;5.80;5.30;;;17.90;99.90;;;;;;10410373;28;20221;-80
2021/07/16 04:06:58;;;;;;;5.73;5.33;;;17.90;99.90;;;;;;10398614;28;20241;-80
2021/07/16 04:12:10;;;;;;;6.10;5.60;;;17.90;99.90;;;;;;10414085;28;20213;-80
2021/07/16 04:17:15;;;;;;;4.80;4.50;;;17.90;99.90;;;;;;10395841;28;20194;-80
2021/07/16 04:22:18;;;;;;;6.10;5.50;;;18.00;99.90;;;;;;10414607;28;20228;-79
2021/07/16 04:27:25;;;;;;;5.93;5.43;;;18.00;99.90;;;;;;10413098;28;20591;-79
2021/07/16 04:32:27;;;;;;;6.03;5.53;;;18.10;99.90;;;;;;10395653;28;20312;-79
2021/07/16 04:37:29;;;;;;;6.30;5.90;;;18.20;99.90;;;;;;10396252;28;20197;-78
2021/07/16 04:42:33;;;;;;;5.97;5.57;;;18.20;99.90;;;;;;10397205;28;20336;-79
2021/07/16 04:47:35;;;;;;;6.30;5.80;;;18.30;99.90;;;;;;10388233;28;20249;-79
2021/07/16 04:52:39;;;;;;;6.70;5.70;;;18.30;99.90;;;;;;10425833;28;20221;-80
2021/07/16 04:57:43;;;;;;;6.10;5.70;;;18.40;99.90;;;;;;10413508;28;20195;-80
2021/07/16 05:02:46;;;;;;;6.00;5.57;;;18.40;99.90;;;;;;10378399;28;20229;-79
2021/07/16 05:07:48;;;;;;;5.73;5.33;;;18.50;99.90;;;;;;10380024;28;20218;-80
2021/07/16 05:12:51;;;;;;;6.30;5.80;;;18.50;99.90;;;;;;10387274;28;20245;-79
2021/07/16 05:17:53;;;;;;;11.40;10.50;;;18.60;99.90;;;;;;10378692;28;20191;-80
2021/07/16 05:22:56;;;;;;;11.00;9.83;;;18.70;99.90;;;;;;10383447;28;20759;-79
2021/07/16 05:27:59;;;;;;;10.70;9.60;;;18.80;99.90;;;;;;10398353;28;20752;-81
2021/07/16 05:33:01;;;;;;;11.30;10.20;;;18.80;99.90;;;;;;10386323;28;20656;-79
2021/07/16 05:38:03;;;;;;;11.33;10.33;;;18.90;99.90;;;;;;10361339;28;20202;-79
2021/07/16 05:43:08;;;;;;;11.20;9.93;;;19.00;99.90;;;;;;10379721;28;20215;-78
2021/07/16 05:48:12;;;;;;;12.73;11.40;;;19.00;99.90;;;;;;10377221;28;20506;-80
2021/07/16 05:53:15;;;;;;;11.57;10.43;;;19.10;99.90;;;;;;10376419;28;20272;-79
2021/07/16 05:58:18;;;;;;;11.03;10.13;;;19.20;99.90;;;;;;10376386;28;20547;-80
2021/07/16 06:03:20;;;;;;;13.43;10.67;;;19.40;99.90;;;;;;10380712;28;20257;-79
2021/07/16 06:08:22;;;;;;;10.73;9.73;;;19.70;99.90;;;;;;10377838;28;20222;-80
2021/07/16 06:13:26;;;;;;;10.47;9.63;;;19.80;99.90;;;;;;10381597;28;20596;-78
2021/07/16 06:18:28;;;;;;;11.30;10.20;;;19.80;99.90;;;;;;10377599;28;20199;-78
2021/07/16 06:23:30;;;;;;;10.57;9.67;;;19.80;99.90;;;;;;10379358;28;20264;-80
2021/07/16 06:28:33;;;;;;;11.83;10.10;;;19.90;99.90;;;;;;10380940;28;20229;-79
2021/07/16 06:33:36;;;;;;;12.13;11.03;;;20.00;99.90;;;;;;10380923;28;20241;-81
2021/07/16 06:38:38;;;;;;;12.17;11.17;;;20.00;99.90;;;;;;10362228;28;20249;-80
2021/07/16 06:43:41;;;;;;;11.03;10.13;;;20.00;99.90;;;;;;10378422;28;20319;-80
2021/07/16 06:48:44;;;;;;;10.83;9.83;;;19.90;99.90;;;;;;10379466;28;20226;-79
2021/07/16 06:53:46;;;;;;;11.23;9.73;;;20.20;99.90;;;;;;10381247;28;20221;-80
2021/07/16 06:58:51;;;;;;;8.93;8.20;;;20.50;99.90;;;;;;10376962;28;20277;-80
2021/07/16 07:03:54;;;;;;;9.57;8.87;;;20.70;99.90;;;;;;10377502;28;20578;-79
2021/07/16 07:08:56;;;;;;;9.77;9.00;;;20.80;99.90;;;;;;10376807;28;20205;-78
2021/07/16 07:13:59;;;;;;;9.80;9.10;;;21.00;99.90;;;;;;10376778;28;20603;-80
2021/07/16 07:19:02;;;;;;;8.60;7.90;;;21.00;99.90;;;;;;10375957;28;20566;-79
2021/07/16 07:24:04;;;;;;;8.63;8.03;;;21.10;99.90;;;;;;10377272;28;20194;-81
2021/07/16 07:29:08;;;;;;;8.73;8.03;;;21.10;99.90;;;;;;10378445;28;20202;-79
2021/07/16 07:34:12;;;;;;;8.87;7.97;;;21.10;99.90;;;;;;10375546;28;20207;-79
2021/07/16 07:39:14;;;;;;;8.20;7.40;;;21.10;99.90;;;;;;10376749;28;20198;-80
2021/07/16 07:44:18;;;;;;;8.57;7.70;;;21.10;99.90;;;;;;10377950;28;20221;-80
2021/07/16 07:49:20;;;;;;;7.93;7.23;;;21.10;99.90;;;;;;10377348;28;20207;-80
2021/07/16 07:54:23;;;;;;;8.17;7.47;;;21.20;99.90;;;;;;10379310;28;20195;-80
2021/07/16 07:59:26;;;;;;;8.10;7.50;;;21.30;99.90;;;;;;10380044;28;20225;-79
2021/07/16 08:04:28;;;;;;;8.80;8.20;;;21.30;99.90;;;;;;10358353;28;20218;-80
2021/07/16 08:09:30;;;;;;;7.90;7.30;;;21.30;99.90;;;;;;10374797;28;20214;-81
2021/07/16 08:14:34;;;;;;;8.23;7.50;;;21.30;99.90;;;;;;10375617;28;20194;-80
2021/07/16 08:19:36;;;;;;;7.73;7.10;;;21.20;99.90;;;;;;10383865;28;20224;-79
2021/07/16 08:24:38;;;;;;;7.07;6.37;;;21.10;99.90;;;;;;10389251;28;20702;-81
2021/07/16 08:29:42;;;;;;;8.07;7.50;;;21.20;99.90;;;;;;10388355;28;20734;-79
2021/07/16 08:34:44;;;;;;;8.43;7.73;;;21.10;99.90;;;;;;10388510;28;20190;-79
2021/07/16 08:39:46;;;;;;;7.70;7.20;;;21.10;99.90;;;;;;10389808;28;20682;-79
2021/07/16 08:44:51;;;;;;;8.63;7.63;;;21.20;99.90;;;;;;10375740;28;20261;-81
2021/07/16 08:49:54;;;;;;;8.10;7.40;;;21.40;99.90;;;;;;10389651;28;20289;-80
2021/07/16 08:54:58;;;;;;;8.87;7.80;;;21.50;99.90;;;;;;10387494;28;20190;-79
2021/07/16 09:00:02;;;;;;;6.77;6.17;;;21.50;99.90;;;;;;10386952;28;20261;-79
2021/07/16 09:05:07;;;;;;;6.73;6.27;;;21.80;99.90;;;;;;10368611;28;20211;-80
2021/07/16 09:10:11;;;;;;;6.60;6.10;;;22.50;99.90;;;;;;10383700;28;20250;-79
2021/07/16 09:15:17;;;;;;;6.77;6.03;;;22.80;99.90;;;;;;10383678;28;20194;-80
2021/07/16 09:20:27;;;;;;;6.13;5.73;;;23.00;99.90;;;;;;10386287;28;20260;-80
2021/07/16 09:25:29;;;;;;;6.00;5.60;;;23.30;99.90;;;;;;10384832;28;20265;-80
2021/07/16 09:30:34;;;;;;;5.20;4.80;;;23.60;99.90;;;;;;10383939;28;20218;-80
2021/07/16 09:35:39;;;;;;;5.30;5.00;;;24.00;99.90;;;;;;10364052;28;20190;-79
2021/07/16 09:40:45;;;;;;;5.63;5.23;;;24.20;99.90;;;;;;10381854;28;20210;-80
2021/07/16 09:46:03;;;;;;;5.00;4.60;;;24.40;99.90;;;;;;10378338;28;20214;-80
2021/07/16 09:51:19;;;;;;;5.90;5.50;;;25.00;99.90;;;;;;10383816;28;20761;-82
2021/07/16 09:56:25;;;;;;;4.60;4.30;;;26.00;99.90;;;;;;10345111;28;20195;-81
2021/07/16 10:01:29;;;;;;;4.80;4.50;;;27.30;99.90;;;;;;10394535;28;20229;-82
2021/07/16 10:06:31;;;;;;;7.23;5.10;;;27.70;99.90;;;;;;10391770;28;20762;-80
2021/07/16 10:11:34;;;;;;;4.87;4.37;;;27.20;99.90;;;;;;10380452;28;20218;-81
2021/07/16 10:16:39;;;;;;;4.50;4.20;;;27.00;99.90;;;;;;10378679;28;20202;-80
2021/07/16 10:21:41;;;;;;;3.40;3.20;;;27.10;99.90;;;;;;10379481;28;20712;-80
2021/07/16 10:26:44;;;;;;;3.77;3.57;;;27.10;99.90;;;;;;10374715;28;20226;-79
2021/07/16 10:31:47;;;;;;;2.90;2.70;;;27.60;99.90;;;;;;10342786;28;20230;-80
2021/07/16 10:36:51;;;;;;;3.47;3.27;;;27.00;99.90;;;;;;10374112;28;20267;-79
2021/07/16 10:41:53;;;;;;;4.10;3.90;;;26.20;99.90;;;;;;10376424;28;20760;-79
2021/07/16 10:46:57;;;;;;;4.13;3.83;;;25.60;99.90;;;;;;10360349;28;20718;-80
2021/07/16 10:52:05;;;;;;;3.30;3.13;;;25.20;99.90;;;;;;10379442;28;20687;-80
2021/07/16 10:57:13;;;;;;;3.50;3.30;;;24.80;99.90;;;;;;10358582;28;20277;-79
2021/07/16 11:02:45;;;;;;;3.40;3.10;;;24.50;99.90;;;;;;10372965;28;20243;-80
2021/07/16 11:07:47;;;;;;;3.70;3.50;;;24.50;99.90;;;;;;10376762;28;20285;-79
2021/07/16 11:12:49;;;;;;;3.27;3.17;;;24.40;99.90;;;;;;10362119;28;20345;-79
2021/07/16 11:17:56;;;;;;;3.00;2.90;;;24.40;99.90;;;;;;10397668;28;20202;-81
2021/07/16 11:23:04;;;;;;;3.13;2.93;;;24.30;99.90;;;;;;10399810;28;20232;-81
2021/07/16 11:28:09;;;;;;;3.00;2.80;;;24.40;99.90;;;;;;10417242;28;20225;-81
2021/07/16 11:33:13;;;;;;;2.90;2.80;;;24.40;99.90;;;;;;10419102;28;20272;-81
2021/07/16 11:38:15;;;;;;;2.87;2.67;;;24.20;99.90;;;;;;10435537;28;20194;-82
2021/07/16 11:43:17;;;;;;;2.50;2.30;;;23.90;99.90;;;;;;10388220;28;20598;-82
2021/07/16 11:48:22;;;;;;;2.80;2.70;;;23.60;99.90;;;;;;11104683;22;20716;-81
2021/07/16 11:53:44;;;;;;;2.73;2.53;;;23.40;99.90;;;;;;10367538;28;20206;-81
2021/07/16 11:59:06;;;;;;;2.33;2.13;;;23.20;99.90;;;;;;10368145;28;20214;-81
2021/07/16 12:04:30;;;;;;;2.30;2.20;;;23.20;99.90;;;;;;10391383;28;20262;-81
2021/07/16 12:09:52;;;;;;;2.53;2.43;;;23.60;99.90;;;;;;10383135;28;20222;-81
2021/07/16 12:15:20;;;;;;;2.20;2.10;;;24.00;99.90;;;;;;10375013;28;20561;-81
2021/07/16 12:20:45;;;;;;;2.37;2.27;;;24.30;99.90;;;;;;10404135;28;20226;-80
2021/07/16 12:26:15;;;;;;;2.30;2.20;;;24.60;99.90;;;;;;10414336;28;20229;-82
2021/07/16 12:31:37;;;;;;;2.60;2.40;;;25.00;99.90;;;;;;10414822;28;20221;-80
2021/07/16 12:37:15;;;;;;;2.30;2.20;;;25.10;99.90;;;;;;10400943;28;20204;-81
2021/07/16 12:42:37;;;;;;;2.67;2.47;;;24.90;99.90;;;;;;10417668;28;20200;-81
2021/07/16 12:47:59;;;;;;;2.60;2.50;;;24.60;99.90;;;;;;10415055;28;20253;-81
2021/07/16 12:53:42;;;;;;;2.70;2.60;;;24.40;99.90;;;;;;10415310;28;20285;-80
2021/07/16 12:59:20;;;;;;;2.40;2.30;;;24.00;99.90;;;;;;10414839;28;20297;-81
2021/07/16 13:04:48;;;;;;;2.80;2.70;;;23.90;99.90;;;;;;10403658;28;20202;-81
2021/07/16 13:10:24;;;;;;;2.90;2.80;;;23.70;99.90;;;;;;10425730;28;20218;-81
2021/07/16 13:16:04;;;;;;;2.70;2.30;;;23.70;99.90;;;;;;10426075;28;20206;-81
2021/07/16 13:21:26;;;;;;;2.50;2.40;;;23.70;99.90;;;;;;10421810;28;20229;-80
2021/07/16 13:26:50;;;;;;;2.77;2.67;;;23.70;99.90;;;;;;10404646;28;20510;-81
2021/07/16 13:32:12;;;;;;;2.50;2.40;;;23.70;99.90;;;;;;10404752;28;20206;-80
2021/07/16 13:37:35;;;;;;;2.57;2.47;;;23.60;99.90;;;;;;10408882;28;20224;-81
2021/07/16 13:42:58;;;;;;;2.47;2.37;;;23.70;99.90;;;;;;10406307;28;20282;-81
2021/07/16 13:48:20;;;;;;;2.33;2.23;;;23.70;99.90;;;;;;10420565;28;20226;-80
2021/07/16 13:53:42;;;;;;;2.37;2.27;;;23.60;99.90;;;;;;10422715;28;20202;-81
2021/07/16 13:59:06;;;;;;;2.60;2.50;;;23.80;99.90;;;;;;10406965;28;20222;-80
2021/07/16 14:04:28;;;;;;;2.53;2.43;;;24.00;99.90;;;;;;10380376;28;20294;-81
2021/07/16 14:09:58;;;;;;;2.23;2.07;;;24.30;99.90;;;;;;10380897;28;20705;-81
2021/07/16 14:15:21;;;;;;;1.73;1.63;;;24.60;99.90;;;;;;10375387;28;20214;-80
2021/07/16 14:20:43;;;;;;;2.07;1.90;;;24.60;99.90;;;;;;10359469;28;20222;-80
2021/07/16 14:26:07;;;;;;;2.17;2.07;;;24.60;99.90;;;;;;10387600;28;20221;-81
2021/07/16 14:31:30;;;;;;;2.33;2.23;;;24.60;99.90;;;;;;10382630;28;20218;-81
2021/07/16 14:36:52;;;;;;;2.10;2.00;;;24.60;99.90;;;;;;10380060;28;20209;-82
2021/07/16 14:42:14;;;;;;;1.87;1.77;;;24.70;99.90;;;;;;10400214;28;20473;-82
2021/07/16 14:47:38;;;;;;;2.70;2.50;;;24.60;99.90;;;;;;10378846;28;20221;-81
2021/07/16 14:53:01;;;;;;;2.13;2.03;;;24.40;99.90;;;;;;10364228;28;20218;-80
2021/07/16 14:58:23;;;;;;;2.20;2.10;;;24.20;99.90;;;;;;10378025;28;20228;-81
2021/07/16 15:03:46;;;;;;;2.30;2.20;;;24.10;99.90;;;;;;10379891;28;20232;-81
2021/07/16 15:09:08;;;;;;;2.00;1.90;;;24.00;99.90;;;;;;10387341;28;20225;-81
2021/07/16 15:14:31;;;;;;;2.20;2.00;;;24.00;99.90;;;;;;10379968;28;20663;-81
2021/07/16 15:19:54;;;;;;;2.90;2.80;;;24.00;99.90;;;;;;10404233;28;20709;-82
2021/07/16 15:25:16;;;;;;;2.30;2.20;;;23.90;99.90;;;;;;10404648;28;20213;-81
2021/07/16 15:30:38;;;;;;;2.93;2.73;;;23.80;99.90;;;;;;10415550;28;20214;-81
2021/07/16 15:36:04;;;;;;;2.40;2.27;;;23.70;99.90;;;;;;10404290;28;20194;-81
2021/07/16 15:41:26;;;;;;;2.53;2.33;;;23.70;99.90;;;;;;10405904;28;20237;-81
2021/07/16 15:46:48;;;;;;;2.40;2.30;;;23.70;99.90;;;;;;10403932;28;20234;-81
2021/07/16 15:52:12;;;;;;;2.60;2.40;;;23.60;99.90;;;;;;10403882;28;20209;-81
2021/07/16 15:57:34;;;;;;;2.70;2.60;;;23.50;99.90;;;;;;10400502;28;20569;-80
2021/07/16 16:02:56;;;;;;;2.80;2.60;;;23.30;99.90;;;;;;10415603;28;20202;-81
2021/07/16 16:08:20;;;;;;;2.23;2.00;;;23.20;99.90;;;;;;10402899;28;20244;-81
2021/07/16 16:13:42;;;;;;;2.73;2.53;;;23.10;99.90;;;;;;10400294;28;20288;-81
2021/07/16 16:19:10;;;;;;;2.60;2.50;;;23.20;99.90;;;;;;10415959;28;20225;-80
2021/07/16 16:24:37;;;;;;;2.93;2.77;;;23.40;99.90;;;;;;10412860;28;20190;-81
2021/07/16 16:30:04;;;;;;;6.00;2.33;;;23.60;99.90;;;;;;10411174;28;20735;-80
2021/07/16 16:35:26;;;;;;;1.93;1.83;;;23.70;99.90;;;;;;10414099;28;20197;-79
2021/07/16 16:40:49;;;;;;;1.97;1.87;;;23.70;99.90;;;;;;10384352;28;20241;-81
2021/07/16 16:46:11;;;;;;;2.27;2.17;;;23.60;99.90;;;;;;10375144;28;20229;-81
2021/07/16 16:51:33;;;;;;;3.43;3.00;;;23.50;99.90;;;;;;10375458;28;20236;-80
2021/07/16 16:56:57;;;;;;;2.60;2.43;;;23.40;99.90;;;;;;10353885;28;20209;-81
2021/07/16 17:02:19;;;;;;;2.40;2.30;;;23.30;99.90;;;;;;10375016;28;20585;-80
2021/07/16 17:07:41;;;;;;;2.10;2.00;;;23.20;99.90;;;;;;10365432;28;20230;-80
2021/07/16 17:13:05;;;;;;;3.23;2.63;;;23.10;99.90;;;;;;10368657;28;20202;-81
2021/07/16 17:18:27;;;;;;;2.50;2.30;;;23.10;99.90;;;;;;10372952;28;20309;-80
2021/07/16 17:23:49;;;;;;;2.60;2.40;;;23.10;99.90;;;;;;10365701;28;20205;-80
2021/07/16 17:29:12;;;;;;;1.73;1.63;;;23.20;99.90;;;;;;10363190;28;20230;-81
2021/07/16 17:34:35;;;;;;;2.10;2.00;;;23.30;99.90;;;;;;10376230;28;20198;-80
2021/07/16 17:39:57;;;;;;;3.00;2.73;;;23.30;99.90;;;;;;10329289;28;20219;-82
2021/07/16 17:45:22;;;;;;;6.57;2.87;;;23.40;99.90;;;;;;10368333;28;20198;-81
2021/07/16 17:50:44;;;;;;;2.40;2.30;;;23.50;99.90;;;;;;10383918;28;20241;-82
2021/07/16 17:56:07;;;;;;;3.80;3.23;;;23.60;99.90;;;;;;10386202;28;20198;-82
2021/07/16 18:01:30;;;;;;;5.87;5.47;;;23.50;99.90;;;;;;10393614;28;20218;-82
2021/07/16 18:06:52;;;;;;;6.53;6.07;;;23.50;99.90;;;;;;10416935;28;20210;-82
2021/07/16 18:12:14;;;;;;;6.80;6.30;;;23.40;99.90;;;;;;10416533;28;20244;-81
2021/07/16 18:17:41;;;;;;;7.20;6.50;;;23.40;99.90;;;;;;10406857;28;20229;-81
2021/07/16 18:23:04;;;;;;;6.37;5.87;;;23.20;99.90;;;;;;10368802;28;20762;-81
2021/07/16 18:28:25;;;;;;;7.70;7.20;;;23.20;99.90;;;;;;10375157;28;20762;-81
2021/07/16 18:33:50;;;;;;;7.73;7.23;;;23.10;99.90;;;;;;10373443;28;20209;-80
2021/07/16 18:39:12;;;;;;;7.30;6.80;;;23.00;99.90;;;;;;10367900;28;20229;-81
2021/07/16 18:44:34;;;;;;;8.97;8.37;;;22.90;99.90;;;;;;10373069;28;20199;-81
2021/07/16 18:49:57;;;;;;;9.57;8.87;;;22.80;99.90;;;;;;10375528;28;20240;-81
2021/07/16 18:55:20;;;;;;;8.40;7.80;;;22.70;99.90;;;;;;10378048;28;20199;-81
2021/07/16 19:00:43;;;;;;;8.90;8.30;;;22.60;99.90;;;;;;10371483;28;20588;-81
2021/07/16 19:06:07;;;;;;;8.87;8.27;;;22.60;99.90;;;;;;10373773;28;20211;-81
2021/07/16 19:11:29;;;;;;;8.70;8.03;;;22.50;99.90;;;;;;10372486;28;20210;-80
2021/07/16 19:16:51;;;;;;;9.73;8.60;;;22.40;99.90;;;;;;10374193;28;20203;-80
2021/07/16 19:22:14;;;;;;;10.00;9.20;;;22.30;99.90;;;;;;10371333;28;20198;-80
2021/07/16 19:27:36;;;;;;;9.93;9.00;;;22.30;99.90;;;;;;10372114;28;20313;-80
2021/07/16 19:32:58;;;;;;;10.23;9.53;;;22.20;99.90;;;;;;10371158;28;20203;-81
2021/07/16 19:38:22;;;;;;;10.43;9.57;;;22.10;99.90;;;;;;10378926;28;20217;-80
2021/07/16 19:43:44;;;;;;;10.33;9.47;;;22.00;99.90;;;;;;10368586;28;20202;-80
2021/07/16 19:49:06;;;;;;;13.80;12.50;;;22.00;99.90;;;;;;10369327;28;20244;-79
2021/07/16 19:54:29;;;;;;;20.00;17.97;;;22.00;99.90;;;;;;10359842;28;20217;-80
2021/07/16 19:59:51;;;;;;;19.80;18.27;;;21.70;99.90;;;;;;10369657;28;20318;-80
2021/07/16 20:05:14;;;;;;;21.27;19.47;;;21.30;99.90;;;;;;10359598;28;20297;-82
2021/07/16 20:10:38;;;;;;;21.23;19.37;;;21.10;99.90;;;;;;10364883;28;20304;-81
2021/07/16 20:16:00;;;;;;;22.80;20.90;;;21.00;99.90;;;;;;10360694;28;21046;-81
2021/07/16 20:21:22;;;;;;;22.27;20.53;;;20.80;99.90;;;;;;10366821;28;20225;-81
2021/07/16 20:26:46;;;;;;;24.50;22.50;;;20.80;99.90;;;;;;10370328;28;20661;-80
2021/07/16 20:32:08;;;;;;;24.87;22.30;;;20.70;99.90;;;;;;10363070;28;20285;-80
2021/07/16 20:37:30;;;;;;;24.37;21.80;;;20.70;99.90;;;;;;10374512;28;20221;-81
2021/07/16 20:42:53;;;;;;;24.43;22.23;;;20.70;99.90;;;;;;10367335;28;20217;-82
2021/07/16 20:48:16;;;;;;;25.77;23.27;;;20.60;99.90;;;;;;10364590;28;20922;-81
2021/07/16 20:53:39;;;;;;;26.83;24.33;;;20.60;99.90;;;;;;10362469;28;20214;-80
2021/07/16 20:59:03;;;;;;;29.53;25.47;;;20.60;99.90;;;;;;10357093;28;20313;-82
2021/07/16 21:04:25;;;;;;;27.30;25.00;;;20.60;99.90;;;;;;10360134;28;20237;-82
2021/07/16 21:09:47;;;;;;;25.87;23.57;;;20.60;99.90;;;;;;10364662;28;20226;-81
2021/07/16 21:15:12;;;;;;;26.20;23.73;;;20.60;99.90;;;;;;10356206;28;20209;-80
2021/07/16 21:20:34;;;;;;;28.07;25.33;;;20.60;99.90;;;;;;10368821;28;20222;-81
2021/07/16 21:25:56;;;;;;;28.20;25.27;;;20.60;99.90;;;;;;10365609;28;20202;-82
2021/07/16 21:31:19;;;;;;;30.63;27.40;;;20.70;99.90;;;;;;10377216;28;20233;-81
2021/07/16 21:36:41;;;;;;;26.70;24.27;;;20.70;99.90;;;;;;10375501;28;20233;-82
2021/07/16 21:42:04;;;;;;;26.93;24.30;;;20.70;99.90;;;;;;10337162;28;20215;-82
2021/07/16 21:47:27;;;;;;;26.73;23.90;;;20.70;99.90;;;;;;10342350;28;20237;-82
2021/07/16 21:52:49;;;;;;;26.50;23.27;;;20.70;99.90;;;;;;10377550;28;20216;-82
2021/07/16 21:58:12;;;;;;;24.67;22.27;;;20.60;99.90;;;;;;10372343;28;20214;-81
2021/07/16 22:03:35;;;;;;;24.23;21.63;;;20.50;99.90;;;;;;10377754;28;20245;-82
2021/07/16 22:08:57;;;;;;;24.13;21.47;;;20.40;99.90;;;;;;10379967;28;20218;-82
2021/07/16 22:14:19;;;;;;;24.40;22.07;;;20.40;99.90;;;;;;10373578;28;20198;-82
2021/07/16 22:19:42;;;;;;;24.67;22.37;;;20.20;99.90;;;;;;10379189;28;20230;-82
2021/07/16 22:25:06;;;;;;;26.10;21.90;;;20.10;99.90;;;;;;10363648;28;20201;-82
2021/07/16 22:30:28;;;;;;;25.70;22.47;;;20.10;99.90;;;;;;10380094;28;20230;-81
2021/07/16 22:35:51;;;;;;;28.23;22.07;;;20.00;99.90;;;;;;10352184;28;20203;-82
2021/07/16 22:41:13;;;;;;;26.87;23.07;;;20.00;99.90;;;;;;10369745;28;20218;-81
2021/07/16 22:46:35;;;;;;;28.00;23.67;;;20.00;99.90;;;;;;10377642;28;20225;-82
2021/07/16 22:51:59;;;;;;;32.50;25.60;;;19.90;99.90;;;;;;10374797;28;20218;-82
2021/07/16 22:57:21;;;;;;;28.93;25.83;;;19.80;99.90;;;;;;10369904;28;20250;-81
2021/07/16 23:02:43;;;;;;;26.53;23.67;;;19.80;99.90;;;;;;10374360;28;20686;-80
2021/07/16 23:08:07;;;;;;;30.83;25.10;;;19.70;99.90;;;;;;10374165;28;20724;-81
2021/07/16 23:13:29;;;;;;;29.10;24.80;;;19.70;99.90;;;;;;10374805;28;20282;-82
2021/07/16 23:18:51;;;;;;;32.80;26.93;;;19.70;99.90;;;;;;10368838;28;20221;-82
2021/07/16 23:24:15;;;;;;;30.00;24.30;;;19.70;99.90;;;;;;10413690;28;20202;-81
2021/07/16 23:29:37;;;;;;;38.60;27.67;;;19.70;99.90;;;;;;10398375;28;20236;-81
2021/07/16 23:34:59;;;;;;;29.97;25.50;;;19.70;99.90;;;;;;10414471;28;20204;-81
2021/07/16 23:40:22;;;;;;;35.77;28.60;;;19.60;99.90;;;;;;10412853;28;20206;-82
2021/07/16 23:45:44;;;;;;;36.50;27.63;;;19.60;99.90;;;;;;10413841;28;20198;-82
2021/07/16 23:51:06;;;;;;;34.17;27.37;;;19.60;99.90;;;;;;10372473;28;20253;-81
2021/07/16 23:56:29;;;;;;;34.50;26.10;;;19.60;99.90;;;;;;10371920;28;20199;-81
